CYNL

SPECI CYNL 071819Z AUTO 09014KT 9SM CLR 25/12 A2968 RMK AO1 WSHFT (18)19 SLP035
SPECI
LOCATION
CYNL
DATE - TIME
071819Z
WIND
090 TRUE @ 14 KNOTS
VISIBILITY
9SM
RUNWAY VISUAL RANGE
NOT REPORTED
WEATHER
CLOUDINESS
CLR
TEMP / DEWPOINT
25 ºC / 12 ºC
ALTIMETER
29.68 in. Hg
RECENT WEATHER
NOT REPORTED
WIND SHEAR
NOT REPORTED
REMARKS
RMK AO1 WSHFT (18)19 SLP035
SEA LEVEL PRESSURE: hPa

CYNL

METAR CYNL 071800Z AUTO 13015G24KT 9SM CLR 25/12 A2969 RMK AO1 SLP037
METAR
LOCATION
CYNL
DATE - TIME
071800Z
WIND
130 TRUE @ 15 KNOTS GUSTS 24 KNOTS
VISIBILITY
9SM
RUNWAY VISUAL RANGE
NOT REPORTED
WEATHER
CLOUDINESS
CLR
TEMP / DEWPOINT
25 ºC / 12 ºC
ALTIMETER
29.69 in. Hg
RECENT WEATHER
NOT REPORTED
WIND SHEAR
NOT REPORTED
REMARKS
RMK AO1 SLP037
SEA LEVEL PRESSURE: hPa

CYNL

METAR CYNL 071700Z AUTO 12010G18KT 9SM CLR 24/12 A2969 RMK AO1 SLP039
METAR
LOCATION
CYNL
DATE - TIME
071700Z
WIND
120 TRUE @ 10 KNOTS GUSTS 18 KNOTS
VISIBILITY
9SM
RUNWAY VISUAL RANGE
NOT REPORTED
WEATHER
CLOUDINESS
CLR
TEMP / DEWPOINT
24 ºC / 12 ºC
ALTIMETER
29.69 in. Hg
RECENT WEATHER
NOT REPORTED
WIND SHEAR
NOT REPORTED
REMARKS
RMK AO1 SLP039
SEA LEVEL PRESSURE: hPa

Your time UTC time
 
 
Weather data provided by AXYS Technologies Inc., www.axystechnologies.com
 
Station History